createdAt,value
2018-10-21T00:00:20.582Z,4.00
2018-10-21T00:01:20.556Z,4.00
2018-10-21T00:02:20.611Z,4.00
2018-10-21T00:03:20.518Z,4.00
2018-10-21T00:04:20.544Z,4.00
2018-10-21T00:05:20.476Z,4.00
2018-10-21T00:06:20.452Z,4.00
2018-10-21T00:07:20.449Z,4.00
2018-10-21T00:08:20.411Z,4.00
2018-10-21T00:09:20.393Z,4.00
2018-10-21T00:10:20.372Z,4.00
2018-10-21T00:11:20.348Z,4.00
2018-10-21T00:12:20.325Z,4.00
2018-10-21T00:13:20.308Z,4.00
2018-10-21T00:14:20.301Z,4.00
2018-10-21T00:15:20.338Z,4.00
2018-10-21T00:16:20.246Z,4.00
2018-10-21T00:17:20.219Z,4.00
2018-10-21T00:18:20.201Z,4.00
2018-10-21T00:19:20.180Z,4.00
2018-10-21T00:20:20.157Z,4.00
2018-10-21T00:21:20.136Z,4.00
2018-10-21T00:22:20.117Z,4.00
2018-10-21T00:23:20.093Z,4.00
2018-10-21T00:24:20.074Z,4.00
2018-10-21T00:25:20.051Z,4.00
2018-10-21T00:26:20.177Z,4.00
2018-10-21T00:27:20.011Z,4.00
2018-10-21T00:28:19.993Z,4.00
2018-10-21T00:29:19.966Z,4.00
2018-10-21T00:30:19.951Z,4.00
2018-10-21T00:31:19.943Z,4.00
2018-10-21T00:32:19.904Z,4.00
2018-10-21T00:33:19.892Z,4.00
2018-10-21T00:34:19.861Z,4.00
2018-10-21T00:35:19.843Z,4.00
2018-10-21T00:36:19.822Z,4.00
2018-10-21T00:37:19.870Z,4.00
2018-10-21T00:38:19.778Z,4.00
2018-10-21T00:39:19.778Z,4.00
2018-10-21T00:40:19.884Z,4.00
2018-10-21T00:41:19.711Z,4.00
2018-10-21T00:42:19.694Z,4.00
2018-10-21T00:43:19.771Z,4.00
2018-10-21T00:44:19.650Z,4.00
2018-10-21T00:45:19.626Z,4.00
2018-10-21T00:46:19.606Z,4.00
2018-10-21T00:47:19.584Z,4.00
2018-10-21T00:48:19.565Z,4.00
2018-10-21T00:49:19.542Z,4.00
2018-10-21T00:50:19.522Z,4.00
2018-10-21T00:51:19.502Z,4.00
2018-10-21T00:52:19.480Z,4.00
2018-10-21T00:53:19.464Z,4.00
2018-10-21T00:54:19.445Z,4.00
2018-10-21T00:55:19.422Z,4.00
2018-10-21T00:56:19.394Z,4.00
2018-10-21T00:57:19.372Z,4.00
2018-10-21T00:58:19.359Z,4.00
2018-10-21T00:59:19.332Z,4.00
2018-10-21T01:00:19.310Z,4.00
2018-10-21T01:01:19.287Z,4.00
2018-10-21T01:02:19.279Z,4.00
2018-10-21T01:03:19.244Z,4.00
2018-10-21T01:04:19.223Z,4.00
2018-10-21T01:05:19.352Z,4.00
2018-10-21T01:06:19.189Z,4.00
2018-10-21T01:07:19.159Z,4.00
2018-10-21T01:08:19.136Z,4.00
2018-10-21T01:09:19.231Z,4.00
2018-10-21T01:10:19.096Z,4.00
2018-10-21T01:11:19.078Z,4.00
2018-10-21T01:12:19.052Z,4.00
2018-10-21T01:13:19.033Z,4.00
2018-10-21T01:14:19.012Z,4.00
2018-10-21T01:15:19.020Z,4.00
2018-10-21T01:16:18.967Z,4.00
2018-10-21T01:17:18.946Z,4.00
2018-10-21T01:18:18.928Z,4.00
2018-10-21T01:19:18.904Z,4.00
2018-10-21T01:20:18.882Z,4.00
2018-10-21T01:21:18.861Z,4.00
2018-10-21T01:22:18.841Z,4.00
2018-10-21T01:23:18.827Z,4.00
2018-10-21T01:24:18.797Z,4.00
2018-10-21T01:25:18.784Z,4.00
2018-10-21T01:26:18.754Z,4.00
2018-10-21T01:27:18.734Z,4.00
2018-10-21T01:28:18.711Z,4.00
2018-10-21T01:29:18.691Z,4.00
2018-10-21T01:30:18.670Z,4.00
2018-10-21T01:31:18.647Z,4.00
2018-10-21T01:32:18.632Z,4.00
2018-10-21T01:33:18.615Z,4.00
2018-10-21T01:34:18.596Z,4.00
2018-10-21T01:35:18.562Z,4.00
2018-10-21T01:36:18.684Z,4.00
2018-10-21T01:37:18.599Z,4.00
2018-10-21T01:38:18.541Z,4.00
2018-10-21T01:39:18.480Z,4.00
2018-10-21T01:40:18.454Z,4.00
2018-10-21T01:41:18.437Z,4.00
2018-10-21T01:42:18.419Z,4.00
2018-10-21T01:43:18.398Z,4.00
2018-10-21T01:44:18.375Z,4.00
2018-10-21T01:45:18.347Z,4.00
2018-10-21T01:46:18.339Z,4.00
2018-10-21T01:47:18.306Z,4.00
2018-10-21T01:48:18.296Z,4.00
2018-10-21T01:49:18.266Z,4.00
2018-10-21T01:50:18.241Z,4.00
2018-10-21T01:51:18.269Z,4.00
2018-10-21T01:52:18.256Z,4.00
2018-10-21T01:53:18.174Z,4.00
2018-10-21T01:54:18.156Z,4.00
2018-10-21T01:55:18.134Z,4.00
2018-10-21T01:56:18.112Z,4.00
2018-10-21T01:57:18.237Z,4.00
2018-10-21T01:58:18.073Z,4.00
2018-10-21T01:59:18.052Z,4.00
2018-10-21T02:00:18.024Z,4.00
2018-10-21T02:01:18.006Z,4.00
2018-10-21T02:02:17.984Z,4.00
2018-10-21T02:03:18.023Z,4.00
2018-10-21T02:04:17.939Z,4.00
2018-10-21T02:05:17.916Z,4.00
2018-10-21T02:06:17.898Z,4.00
2018-10-21T02:07:17.876Z,4.00
2018-10-21T02:08:17.853Z,4.00
2018-10-21T02:09:18.014Z,4.00
2018-10-21T02:10:17.810Z,4.00
2018-10-21T02:11:17.788Z,4.00
2018-10-21T02:12:17.766Z,4.00
2018-10-21T02:13:17.743Z,4.00
2018-10-21T02:14:17.755Z,4.00
2018-10-21T02:15:17.703Z,4.00
2018-10-21T02:16:17.680Z,4.00
2018-10-21T02:17:17.659Z,4.00
2018-10-21T02:18:17.639Z,4.00
2018-10-21T02:19:17.616Z,4.00
2018-10-21T02:20:17.592Z,4.00
2018-10-21T02:21:17.682Z,4.00
2018-10-21T02:22:17.552Z,4.00
2018-10-21T02:23:17.528Z,4.00
2018-10-21T02:24:17.513Z,4.00
2018-10-21T02:25:17.487Z,4.00
2018-10-21T02:26:17.519Z,4.00
2018-10-21T02:27:17.546Z,4.00
2018-10-21T02:28:17.423Z,4.00
2018-10-21T02:29:17.401Z,4.00
2018-10-21T02:30:17.377Z,4.00
2018-10-21T02:31:17.361Z,4.00
2018-10-21T02:32:17.335Z,4.00
2018-10-21T02:33:17.414Z,4.00
2018-10-21T02:34:17.299Z,4.00
2018-10-21T02:35:17.268Z,4.00
2018-10-21T02:36:17.299Z,4.00
2018-10-21T02:37:17.224Z,4.00
2018-10-21T02:38:17.203Z,4.00
2018-10-21T02:39:17.281Z,4.00
2018-10-21T02:40:17.169Z,4.00
2018-10-21T02:41:17.137Z,4.00
2018-10-21T02:42:17.152Z,4.00
2018-10-21T02:43:17.094Z,4.00
2018-10-21T02:44:17.070Z,4.00
2018-10-21T02:45:17.186Z,4.00
2018-10-21T02:46:17.031Z,4.00
2018-10-21T02:47:17.010Z,4.00
2018-10-21T02:48:16.986Z,4.00
2018-10-21T02:49:17.004Z,4.00
2018-10-21T02:50:16.944Z,4.00
2018-10-21T02:51:16.943Z,4.00
2018-10-21T02:52:16.896Z,4.00
2018-10-21T02:53:16.875Z,4.00
2018-10-21T02:54:16.853Z,4.00
2018-10-21T02:55:16.835Z,4.00
2018-10-21T02:56:16.812Z,4.00
2018-10-21T02:57:16.946Z,4.00
2018-10-21T02:58:16.764Z,4.00
2018-10-21T02:59:16.741Z,4.00
2018-10-21T03:00:16.735Z,4.00
2018-10-21T03:01:16.699Z,4.00
2018-10-21T03:02:16.680Z,4.00
2018-10-21T03:03:16.756Z,4.00
2018-10-21T03:04:16.638Z,4.00
2018-10-21T03:05:16.622Z,4.00
2018-10-21T03:06:16.610Z,4.00
2018-10-21T03:07:16.572Z,4.00
2018-10-21T03:08:16.549Z,4.00
2018-10-21T03:09:16.583Z,4.00
2018-10-21T03:10:16.509Z,4.00
2018-10-21T03:11:16.481Z,4.00
2018-10-21T03:12:16.456Z,4.00
2018-10-21T03:13:16.435Z,4.00
2018-10-21T03:14:16.419Z,4.00
2018-10-21T03:15:16.472Z,4.00
2018-10-21T03:16:16.369Z,4.00
2018-10-21T03:17:16.349Z,4.00
2018-10-21T03:18:16.352Z,4.00
2018-10-21T03:19:16.304Z,4.00
2018-10-21T03:20:16.280Z,4.00
2018-10-21T03:21:16.333Z,4.00
2018-10-21T03:22:16.357Z,4.00
2018-10-21T03:23:16.215Z,4.00
2018-10-21T03:24:16.194Z,4.00
2018-10-21T03:25:16.221Z,4.00
2018-10-21T03:26:16.156Z,4.00
2018-10-21T03:27:16.213Z,4.00
2018-10-21T03:28:16.108Z,4.00
2018-10-21T03:29:16.083Z,4.00
2018-10-21T03:30:16.060Z,4.00
2018-10-21T03:31:16.047Z,4.00
2018-10-21T03:32:16.024Z,4.00
2018-10-21T03:33:16.116Z,4.00
2018-10-21T03:34:15.973Z,4.00
2018-10-21T03:35:15.951Z,4.00
2018-10-21T03:36:15.929Z,4.00
2018-10-21T03:37:15.920Z,4.00
2018-10-21T03:38:15.888Z,4.00
2018-10-21T03:39:15.920Z,4.00
2018-10-21T03:40:15.918Z,4.00
2018-10-21T03:41:15.821Z,4.00
2018-10-21T03:42:15.805Z,4.00
2018-10-21T03:43:15.776Z,4.00
2018-10-21T03:44:15.760Z,4.00
2018-10-21T03:45:15.733Z,4.00
2018-10-21T03:46:15.832Z,4.00
2018-10-21T03:47:15.687Z,4.00
2018-10-21T03:48:15.679Z,4.00
2018-10-21T03:49:15.646Z,4.00
2018-10-21T03:50:15.623Z,4.00
2018-10-21T03:51:15.603Z,4.00
2018-10-21T03:52:15.742Z,4.00
2018-10-21T03:53:15.556Z,4.00
2018-10-21T03:54:15.532Z,4.00
2018-10-21T03:55:15.510Z,4.00
2018-10-21T03:56:15.487Z,4.00
2018-10-21T03:57:15.466Z,4.00
2018-10-21T03:58:15.503Z,4.00
2018-10-21T03:59:15.437Z,4.00
2018-10-21T04:00:15.400Z,4.00
2018-10-21T04:01:15.380Z,4.00
2018-10-21T04:02:15.371Z,4.00
2018-10-21T04:03:15.337Z,4.00
2018-10-21T04:04:15.386Z,4.00
2018-10-21T04:05:15.287Z,4.00
2018-10-21T04:06:15.268Z,4.00
2018-10-21T04:07:15.244Z,4.00
2018-10-21T04:08:15.225Z,4.00
2018-10-21T04:09:15.204Z,4.00
2018-10-21T04:10:15.282Z,4.00
2018-10-21T04:11:15.167Z,4.00
2018-10-21T04:12:15.137Z,4.00
2018-10-21T04:13:15.113Z,4.00
2018-10-21T04:14:15.097Z,4.00
2018-10-21T04:15:15.069Z,4.00
2018-10-21T04:16:15.078Z,4.00
2018-10-21T04:17:15.024Z,4.00
2018-10-21T04:18:15.005Z,4.00
2018-10-21T04:19:14.981Z,4.00
2018-10-21T04:20:15.017Z,4.00
2018-10-21T04:21:14.947Z,4.00
2018-10-21T04:22:14.988Z,4.00
2018-10-21T04:23:14.898Z,4.00
2018-10-21T04:24:14.871Z,4.00
2018-10-21T04:25:14.851Z,4.00
2018-10-21T04:26:14.827Z,4.00
2018-10-21T04:27:14.809Z,4.00
2018-10-21T04:28:14.875Z,4.00
2018-10-21T04:29:14.769Z,4.00
2018-10-21T04:30:14.739Z,4.00
2018-10-21T04:31:14.720Z,4.00
2018-10-21T04:32:14.696Z,4.00
2018-10-21T04:33:14.673Z,4.00
2018-10-21T04:34:14.671Z,4.00
2018-10-21T04:35:14.701Z,4.00
2018-10-21T04:36:14.612Z,4.00
2018-10-21T04:37:14.582Z,4.00
2018-10-21T04:38:14.564Z,4.00
2018-10-21T04:39:14.540Z,4.00
2018-10-21T04:40:14.565Z,4.00
2018-10-21T04:41:14.498Z,4.00
2018-10-21T04:42:14.474Z,4.00
2018-10-21T04:43:14.451Z,4.00
2018-10-21T04:44:14.432Z,4.00
2018-10-21T04:45:14.406Z,4.00
2018-10-21T04:46:14.439Z,4.00
2018-10-21T04:47:14.364Z,4.00
2018-10-21T04:48:14.341Z,4.00
2018-10-21T04:49:14.325Z,4.00
2018-10-21T04:50:14.306Z,4.00
2018-10-21T04:51:14.273Z,4.00
2018-10-21T04:52:14.304Z,4.00
2018-10-21T04:53:14.231Z,4.00
2018-10-21T04:54:14.206Z,4.00
2018-10-21T04:55:14.187Z,4.00
2018-10-21T04:56:14.161Z,4.00
2018-10-21T04:57:14.141Z,4.00
2018-10-21T04:58:14.166Z,4.00
2018-10-21T04:59:14.096Z,4.00
2018-10-21T05:00:14.073Z,4.00
2018-10-21T05:01:14.056Z,4.00
2018-10-21T05:02:14.027Z,4.00
2018-10-21T05:03:14.012Z,4.00
2018-10-21T05:04:14.020Z,4.00
2018-10-21T05:05:13.974Z,4.00
2018-10-21T05:06:13.939Z,4.00
2018-10-21T05:07:13.922Z,4.00
2018-10-21T05:08:13.897Z,4.00
2018-10-21T05:09:13.874Z,4.00
2018-10-21T05:10:13.953Z,4.00
2018-10-21T05:11:13.836Z,4.00
2018-10-21T05:12:13.813Z,4.00
2018-10-21T05:13:13.787Z,4.00
2018-10-21T05:14:13.762Z,4.00
2018-10-21T05:15:13.817Z,4.00
2018-10-21T05:16:13.758Z,4.00
2018-10-21T05:17:13.698Z,4.00
2018-10-21T05:18:13.681Z,4.00
2018-10-21T05:19:13.664Z,4.00
2018-10-21T05:20:13.631Z,4.00
2018-10-21T05:21:13.609Z,4.00
2018-10-21T05:22:13.718Z,8.00
2018-10-21T05:23:13.714Z,8.00
2018-10-21T05:24:13.538Z,4.00
2018-10-21T05:25:13.520Z,4.00
2018-10-21T05:26:13.500Z,4.00
2018-10-21T05:27:13.475Z,4.00
2018-10-21T05:28:13.535Z,4.00
2018-10-21T05:29:13.435Z,4.00
2018-10-21T05:30:13.404Z,8.00
2018-10-21T05:31:13.381Z,4.00
2018-10-21T05:32:13.359Z,8.00
2018-10-21T05:33:13.335Z,8.00
2018-10-21T05:34:13.392Z,8.00
2018-10-21T05:35:13.294Z,8.00
2018-10-21T05:36:13.271Z,8.00
2018-10-21T05:37:13.251Z,8.00
2018-10-21T05:38:13.225Z,12.00
2018-10-21T05:39:13.201Z,16.00
2018-10-21T05:40:13.280Z,16.00
2018-10-21T05:41:13.161Z,20.00
2018-10-21T05:42:13.273Z,24.00
2018-10-21T05:43:13.113Z,24.00
2018-10-21T05:44:13.088Z,24.00
2018-10-21T05:45:13.129Z,28.00
2018-10-21T05:46:13.113Z,36.00
2018-10-21T05:47:13.092Z,40.00
2018-10-21T05:48:13.103Z,48.00
2018-10-21T05:49:12.988Z,52.00
2018-10-21T05:50:12.958Z,60.00
2018-10-21T05:51:12.934Z,72.00
2018-10-21T05:52:12.985Z,80.00
2018-10-21T05:53:12.902Z,96.00
2018-10-21T05:54:12.872Z,104.00
2018-10-21T05:55:12.843Z,116.00
2018-10-21T05:56:12.821Z,132.00
2018-10-21T05:57:12.799Z,148.00
2018-10-21T05:58:12.782Z,164.00
2018-10-21T05:59:12.757Z,184.00
2018-10-21T06:00:12.738Z,200.00
2018-10-21T06:01:12.716Z,220.00
2018-10-21T06:02:12.685Z,240.00
2018-10-21T06:03:12.676Z,260.00
2018-10-21T06:04:12.714Z,288.00
2018-10-21T06:05:12.619Z,308.00
2018-10-21T06:06:12.597Z,336.00
2018-10-21T06:07:12.577Z,360.00
2018-10-21T06:08:12.561Z,388.00
2018-10-21T06:09:12.534Z,416.00
2018-10-21T06:10:12.571Z,444.00
2018-10-21T06:11:12.502Z,480.00
2018-10-21T06:12:12.462Z,508.00
2018-10-21T06:13:12.446Z,540.00
2018-10-21T06:14:12.420Z,576.00
2018-10-21T06:15:12.400Z,612.00
2018-10-21T06:16:12.442Z,652.00
2018-10-21T06:17:12.356Z,692.00
2018-10-21T06:18:12.331Z,736.00
2018-10-21T06:19:12.308Z,780.00
2018-10-21T06:20:12.284Z,820.00
2018-10-21T06:21:12.363Z,864.00
2018-10-21T06:22:12.351Z,908.00
2018-10-21T06:23:12.217Z,952.00
2018-10-21T06:24:12.202Z,1000.00
2018-10-21T06:25:12.177Z,1056.00
2018-10-21T06:26:12.151Z,1112.00
2018-10-21T06:27:12.129Z,1172.00
2018-10-21T06:28:12.107Z,1236.00
2018-10-21T06:29:12.084Z,1304.00
2018-10-21T06:30:12.065Z,1364.00
2018-10-21T06:31:12.061Z,1420.00
2018-10-21T06:32:12.015Z,1476.00
2018-10-21T06:33:12.051Z,1532.00
2018-10-21T06:34:11.978Z,1596.00
2018-10-21T06:35:12.013Z,1668.00
2018-10-21T06:36:11.928Z,1736.00
2018-10-21T06:37:11.914Z,1804.00
2018-10-21T06:38:11.897Z,1868.00
2018-10-21T06:39:11.949Z,1920.00
2018-10-21T06:40:11.888Z,1968.00
2018-10-21T06:41:11.815Z,2008.00
2018-10-21T06:42:11.942Z,2056.00
2018-10-21T06:43:11.777Z,2112.00
2018-10-21T06:44:11.750Z,2172.00
2018-10-21T06:45:11.804Z,2220.00
2018-10-21T06:46:11.712Z,2260.00
2018-10-21T06:47:11.683Z,2304.00
2018-10-21T06:48:11.661Z,2348.00
2018-10-21T06:49:11.700Z,2392.00
2018-10-21T06:50:11.614Z,2444.00
2018-10-21T06:51:11.686Z,2480.00
2018-10-21T06:52:11.573Z,2512.00
2018-10-21T06:53:11.551Z,2560.00
2018-10-21T06:54:11.547Z,2592.00
2018-10-21T06:55:11.507Z,2628.00
2018-10-21T06:56:11.496Z,2672.00
2018-10-21T06:57:11.597Z,2716.00
2018-10-21T06:58:11.438Z,2760.00
2018-10-21T06:59:11.424Z,2800.00
2018-10-21T07:00:11.394Z,2852.00
2018-10-21T07:01:11.375Z,2868.00
2018-10-21T07:02:11.354Z,2908.00
2018-10-21T07:03:11.336Z,2944.00
2018-10-21T07:04:11.395Z,2984.00
2018-10-21T07:05:11.336Z,3020.00
2018-10-21T07:06:11.273Z,3088.00
2018-10-21T07:07:11.245Z,3136.00
2018-10-21T07:08:11.231Z,3192.00
2018-10-21T07:09:11.206Z,3236.00
2018-10-21T07:10:11.238Z,3304.00
2018-10-21T07:11:11.151Z,3336.00
2018-10-21T07:12:11.131Z,3368.00
2018-10-21T07:13:11.217Z,3384.00
2018-10-21T07:14:11.081Z,3408.00
2018-10-21T07:15:11.078Z,3448.00
2018-10-21T07:16:11.104Z,3460.00
2018-10-21T07:17:11.020Z,3488.00
2018-10-21T07:18:10.991Z,3504.00
2018-10-21T07:19:10.970Z,3528.00
2018-10-21T07:20:10.959Z,3556.00
2018-10-21T07:21:10.932Z,3584.00
2018-10-21T07:22:11.038Z,3620.00
2018-10-21T07:23:10.886Z,3644.00
2018-10-21T07:24:10.862Z,3652.00
2018-10-21T07:25:10.841Z,3680.00
2018-10-21T07:26:10.812Z,3700.00
2018-10-21T07:27:10.803Z,3716.00
2018-10-21T07:28:10.843Z,3740.00
2018-10-21T07:29:10.756Z,3772.00
2018-10-21T07:30:10.731Z,3808.00
2018-10-21T07:31:10.700Z,3852.00
2018-10-21T07:32:10.691Z,3888.00
2018-10-21T07:33:10.655Z,3928.00
2018-10-21T07:34:10.692Z,3952.00
2018-10-21T07:35:10.609Z,3992.00
2018-10-21T07:36:10.668Z,4004.00
2018-10-21T07:37:10.566Z,4032.00
2018-10-21T07:38:10.542Z,4052.00
2018-10-21T07:39:10.535Z,4084.00
2018-10-21T07:40:10.527Z,4120.00
2018-10-21T07:41:10.487Z,4124.00
2018-10-21T07:42:10.452Z,4148.00
2018-10-21T07:43:10.429Z,4176.00
2018-10-21T07:44:10.413Z,4192.00
2018-10-21T07:45:10.383Z,4216.00
2018-10-21T07:46:10.491Z,4248.00
2018-10-21T07:47:10.344Z,4292.00
2018-10-21T07:48:10.325Z,4320.00
2018-10-21T07:49:10.459Z,4392.00
2018-10-21T07:50:10.276Z,4400.00
2018-10-21T07:51:10.256Z,4440.00
2018-10-21T07:52:10.344Z,4448.00
2018-10-21T07:53:10.204Z,4476.00
2018-10-21T07:54:10.198Z,4516.00
2018-10-21T07:55:10.218Z,4556.00
2018-10-21T07:56:10.136Z,4584.00
2018-10-21T07:57:10.118Z,4624.00
2018-10-21T07:58:10.193Z,4672.00
2018-10-21T07:59:10.079Z,4628.00
2018-10-21T08:00:10.047Z,4644.00
2018-10-21T08:01:10.057Z,4652.00
2018-10-21T08:02:10.016Z,4656.00
2018-10-21T08:03:09.999Z,4668.00
2018-10-21T08:04:10.000Z,4692.00
2018-10-21T08:05:09.940Z,4700.00
2018-10-21T08:06:09.925Z,4716.00
2018-10-21T08:07:09.900Z,4788.00
2018-10-21T08:08:09.898Z,4788.00
2018-10-21T08:09:09.856Z,4852.00
2018-10-21T08:10:09.902Z,4896.00
2018-10-21T08:11:09.807Z,4956.00
2018-10-21T08:12:09.794Z,4996.00
2018-10-21T08:13:09.762Z,5040.00
2018-10-21T08:14:09.746Z,5080.00
2018-10-21T08:15:09.798Z,5112.00
2018-10-21T08:16:09.775Z,5132.00
2018-10-21T08:17:09.670Z,5140.00
2018-10-21T08:18:09.650Z,5152.00
2018-10-21T08:19:09.630Z,5148.00
2018-10-21T08:20:09.604Z,5160.00
2018-10-21T08:21:09.603Z,5192.00
2018-10-21T08:22:09.596Z,5232.00
2018-10-21T08:23:09.539Z,5288.00
2018-10-21T08:24:09.516Z,5336.00
2018-10-21T08:25:09.493Z,5316.00
2018-10-21T08:26:09.474Z,5340.00
2018-10-21T08:27:09.502Z,5380.00
2018-10-21T08:28:09.503Z,5432.00
2018-10-21T08:29:09.414Z,5488.00
2018-10-21T08:30:09.388Z,5560.00
2018-10-21T08:31:09.362Z,5636.00
2018-10-21T08:32:09.340Z,5676.00
2018-10-21T08:33:09.340Z,5704.00
2018-10-21T08:34:09.313Z,5740.00
2018-10-21T08:35:09.290Z,5752.00
2018-10-21T08:36:09.338Z,5816.00
2018-10-21T08:37:09.247Z,5820.00
2018-10-21T08:38:09.215Z,5876.00
2018-10-21T08:39:09.195Z,5892.00
2018-10-21T08:40:09.263Z,5996.00
2018-10-21T08:41:09.253Z,6032.00
2018-10-21T08:42:09.125Z,6036.00
2018-10-21T08:43:09.110Z,6112.00
2018-10-21T08:44:09.089Z,6220.00
2018-10-21T08:45:09.072Z,6492.00
2018-10-21T08:46:09.207Z,8528.00
2018-10-21T08:47:09.024Z,17888.00
2018-10-21T08:48:09.041Z,17536.00
2018-10-21T08:49:09.054Z,20480.00
2018-10-21T08:50:09.010Z,23200.00
2018-10-21T08:51:08.937Z,10008.00
2018-10-21T08:52:08.954Z,7216.00
2018-10-21T08:53:08.947Z,8948.00
2018-10-21T08:54:08.879Z,8288.00
2018-10-21T08:55:08.903Z,13256.00
2018-10-21T08:56:08.840Z,22752.00
2018-10-21T08:57:08.816Z,25152.00
2018-10-21T08:58:08.844Z,27008.00
2018-10-21T08:59:08.768Z,30976.00
2018-10-21T09:00:08.747Z,28960.00
2018-10-21T09:01:08.784Z,25760.00
2018-10-21T09:02:08.754Z,26944.00
2018-10-21T09:03:08.694Z,40384.00
2018-10-21T09:04:08.676Z,16064.00
2018-10-21T09:05:08.663Z,35392.00
2018-10-21T09:06:08.644Z,11560.00
2018-10-21T09:07:08.691Z,9316.00
2018-10-21T09:08:08.600Z,8848.00
2018-10-21T09:09:08.593Z,11240.00
2018-10-21T09:10:08.709Z,10172.00
2018-10-21T09:11:08.656Z,9712.00
2018-10-21T09:12:08.528Z,15208.00
2018-10-21T09:13:08.546Z,13696.00
2018-10-21T09:14:08.493Z,26720.00
2018-10-21T09:15:08.622Z,35744.00
2018-10-21T09:16:08.518Z,24576.00
2018-10-21T09:17:08.417Z,30208.00
2018-10-21T09:18:08.404Z,30272.00
2018-10-21T09:19:08.410Z,27200.00
2018-10-21T09:20:08.361Z,25536.00
2018-10-21T09:21:08.342Z,25632.00
2018-10-21T09:22:08.405Z,29504.00
2018-10-21T09:23:08.308Z,31200.00
2018-10-21T09:24:08.311Z,27264.00
2018-10-21T09:25:08.335Z,22752.00
2018-10-21T09:26:08.254Z,25952.00
2018-10-21T09:27:08.237Z,29856.00
2018-10-21T09:28:08.279Z,32672.00
2018-10-21T09:29:08.201Z,32832.00
2018-10-21T09:30:08.239Z,26848.00
2018-10-21T09:31:08.223Z,21120.00
2018-10-21T09:32:08.155Z,19584.00
2018-10-21T09:33:08.171Z,17792.00
2018-10-21T09:34:08.174Z,23648.00
2018-10-21T09:35:08.109Z,35264.00
2018-10-21T09:36:08.091Z,35264.00
2018-10-21T09:37:08.106Z,35392.00
2018-10-21T09:38:08.053Z,29056.00
2018-10-21T09:39:08.035Z,31392.00
2018-10-21T09:40:08.090Z,28864.00
2018-10-21T09:41:08.005Z,27296.00
2018-10-21T09:42:08.080Z,34144.00
2018-10-21T09:43:08.024Z,30688.00
2018-10-21T09:44:07.957Z,18528.00
2018-10-21T09:45:07.950Z,30816.00
2018-10-21T09:46:07.960Z,40864.00
2018-10-21T09:47:07.912Z,44640.00
2018-10-21T09:48:07.899Z,45504.00
2018-10-21T09:49:07.948Z,45984.00
2018-10-21T09:50:07.933Z,45440.00
2018-10-21T09:51:07.855Z,45408.00
2018-10-21T09:52:07.933Z,48352.00
2018-10-21T09:53:07.828Z,49984.00
2018-10-21T09:54:07.816Z,49248.00
2018-10-21T09:55:07.861Z,48832.00
2018-10-21T09:56:07.790Z,48288.00
2018-10-21T09:57:07.772Z,48544.00
2018-10-21T09:58:07.789Z,46752.00
2018-10-21T09:59:07.757Z,43936.00
2018-10-21T10:00:07.724Z,45920.00
2018-10-21T10:01:07.744Z,46048.00
2018-10-21T10:02:07.709Z,46912.00
2018-10-21T10:03:07.698Z,50048.00
2018-10-21T10:04:08.709Z,48864.00
2018-10-21T10:06:40.540Z,46400.00
2018-10-21T10:07:40.499Z,48672.00
2018-10-21T10:08:40.485Z,50048.00
2018-10-21T10:09:40.472Z,50656.00
2018-10-21T10:10:40.471Z,51040.00
2018-10-21T10:11:40.445Z,51712.00
2018-10-21T10:12:40.435Z,50752.00
2018-10-21T10:13:40.419Z,49440.00
2018-10-21T10:15:29.788Z,48096.00
2018-10-21T10:16:29.783Z,47968.00
2018-10-21T10:17:30.198Z,44288.00
2018-10-21T10:18:29.749Z,31904.00
2018-10-21T10:19:29.755Z,20832.00
2018-10-21T10:21:02.942Z,16512.00
2018-10-21T10:21:29.718Z,15548.00
2018-10-21T10:22:29.701Z,14892.00
2018-10-21T10:23:29.717Z,14516.00
2018-10-21T10:24:29.688Z,14156.00
2018-10-21T10:25:29.661Z,13980.00
2018-10-21T10:26:29.649Z,13520.00
2018-10-21T10:27:29.629Z,13416.00
2018-10-21T10:28:29.634Z,13288.00
2018-10-21T10:29:29.603Z,13140.00
2018-10-21T10:30:29.635Z,12932.00
2018-10-21T10:31:29.578Z,12932.00
2018-10-21T10:32:29.564Z,12576.00
2018-10-21T10:33:29.557Z,12376.00
2018-10-21T10:34:29.544Z,12360.00
2018-10-21T10:35:29.525Z,12352.00
2018-10-21T10:36:29.515Z,12264.00
2018-10-21T10:37:29.516Z,12140.00
2018-10-21T10:38:29.495Z,11824.00
2018-10-21T10:39:29.476Z,11676.00
2018-10-21T10:40:29.461Z,11632.00
2018-10-21T10:41:29.448Z,11420.00
2018-10-21T10:42:29.435Z,11352.00
2018-10-21T10:43:29.422Z,11276.00
2018-10-21T10:44:29.408Z,11048.00
2018-10-21T10:45:29.405Z,10988.00
2018-10-21T10:46:29.384Z,10948.00
2018-10-21T10:47:29.376Z,10916.00
2018-10-21T10:48:30.371Z,10800.00
2018-10-21T10:49:29.346Z,10748.00
2018-10-21T10:50:29.326Z,10684.00
2018-10-21T10:51:29.365Z,10680.00
2018-10-21T10:52:29.310Z,10484.00
2018-10-21T10:53:29.291Z,10148.00
2018-10-21T10:54:29.327Z,10092.00
2018-10-21T10:55:29.259Z,9996.00
2018-10-21T10:56:29.248Z,9984.00
2018-10-21T10:57:29.237Z,9928.00
2018-10-21T10:58:29.223Z,9724.00
2018-10-21T10:59:29.251Z,9624.00
2018-10-21T11:00:29.209Z,9704.00
2018-10-21T11:01:29.180Z,9684.00
2018-10-21T11:02:29.166Z,9516.00
2018-10-21T11:03:29.152Z,9564.00
2018-10-21T11:04:29.137Z,9476.00
2018-10-21T11:05:29.137Z,9588.00
2018-10-21T11:06:29.118Z,9600.00
2018-10-21T11:07:29.096Z,9460.00
2018-10-21T11:08:29.079Z,9076.00
2018-10-21T11:09:29.072Z,8956.00
2018-10-21T11:10:29.055Z,9016.00
2018-10-21T11:11:29.048Z,9132.00
2018-10-21T11:12:29.036Z,8872.00
2018-10-21T11:13:29.011Z,8808.00
2018-10-21T11:14:29.063Z,8940.00
2018-10-21T11:15:28.984Z,9048.00
2018-10-21T11:16:28.974Z,9076.00
2018-10-21T11:17:28.955Z,8928.00
2018-10-21T11:18:29.049Z,8668.00
2018-10-21T11:19:28.926Z,8724.00
2018-10-21T11:20:28.916Z,8820.00
2018-10-21T11:21:28.921Z,8816.00
2018-10-21T11:22:28.970Z,8860.00
2018-10-21T11:23:28.869Z,8964.00
2018-10-21T11:24:28.871Z,9040.00
2018-10-21T11:25:28.846Z,8996.00
2018-10-21T11:26:28.845Z,9116.00
2018-10-21T11:27:28.822Z,9008.00
2018-10-21T11:28:28.798Z,8980.00
2018-10-21T11:29:28.786Z,8844.00
2018-10-21T11:30:28.781Z,8840.00
2018-10-21T11:31:30.170Z,8916.00
2018-10-21T11:32:33.041Z,8956.00
2018-10-21T11:33:28.729Z,9040.00
2018-10-21T11:34:28.721Z,8988.00
2018-10-21T11:35:28.698Z,9036.00
2018-10-21T11:36:28.689Z,9048.00
2018-10-21T11:37:28.858Z,9088.00
2018-10-21T11:38:28.650Z,9156.00
2018-10-21T11:39:28.638Z,9272.00
2018-10-21T11:40:28.622Z,9456.00
2018-10-21T11:41:28.618Z,9668.00
2018-10-21T11:42:28.596Z,10576.00
2018-10-21T11:43:28.572Z,21376.00
2018-10-21T11:44:28.566Z,35072.00
2018-10-21T11:45:28.611Z,35264.00
2018-10-21T11:46:28.615Z,32352.00
2018-10-21T11:47:28.513Z,24384.00
2018-10-21T11:48:28.504Z,11868.00
2018-10-21T11:49:28.494Z,9332.00
2018-10-21T11:50:28.471Z,9312.00
2018-10-21T11:51:28.456Z,8804.00
2018-10-21T11:52:28.465Z,8568.00
2018-10-21T11:53:28.430Z,8484.00
2018-10-21T11:54:28.413Z,8524.00
2018-10-21T11:55:28.389Z,8524.00
2018-10-21T11:56:28.385Z,7808.00
2018-10-21T11:57:28.366Z,6588.00
2018-10-21T11:58:28.344Z,6144.00
2018-10-21T11:59:28.330Z,5948.00
2018-10-21T12:00:28.314Z,5848.00
2018-10-21T12:01:28.298Z,5840.00
2018-10-21T12:02:28.296Z,5856.00
2018-10-21T12:03:28.273Z,5832.00
2018-10-21T12:04:28.260Z,5808.00
2018-10-21T12:05:28.250Z,5712.00
2018-10-21T12:06:28.221Z,5528.00
2018-10-21T12:07:28.227Z,5380.00
2018-10-21T12:08:28.195Z,5264.00
2018-10-21T12:09:28.173Z,5056.00
2018-10-21T12:10:28.160Z,4608.00
2018-10-21T12:11:28.150Z,4552.00
2018-10-21T12:12:28.138Z,4732.00
2018-10-21T12:13:28.115Z,4724.00
2018-10-21T12:14:28.094Z,4580.00
2018-10-21T12:15:28.084Z,4496.00
2018-10-21T12:16:28.072Z,4468.00
2018-10-21T12:17:28.047Z,4480.00
2018-10-21T12:18:28.033Z,4436.00
2018-10-21T12:19:28.013Z,4556.00
2018-10-21T12:20:28.002Z,4672.00
2018-10-21T12:21:27.984Z,4708.00
2018-10-21T12:22:28.041Z,4728.00
2018-10-21T12:23:28.035Z,4684.00
2018-10-21T12:24:27.952Z,4616.00
2018-10-21T12:25:27.927Z,4548.00
2018-10-21T12:26:27.907Z,4504.00
2018-10-21T12:27:27.883Z,4464.00
2018-10-21T12:28:27.869Z,4368.00
2018-10-21T12:29:27.861Z,4284.00
2018-10-21T12:30:27.837Z,4220.00
2018-10-21T12:31:27.838Z,4160.00
2018-10-21T12:32:27.806Z,4144.00
2018-10-21T12:33:27.805Z,4164.00
2018-10-21T12:34:27.774Z,4240.00
2018-10-21T12:35:27.757Z,4280.00
2018-10-21T12:36:27.743Z,4260.00